sensor_id;sensor_type;location;lat;lon;timestamp;P1;durP1;ratioP1;P2;durP2;ratioP2
7377;SDS011;3730;50.856;12.776;2022-09-14T00:02:22;5.10;;;4.27;;
7377;SDS011;3730;50.856;12.776;2022-09-14T00:04:48;4.40;;;4.07;;
7377;SDS011;3730;50.856;12.776;2022-09-14T00:07:15;4.33;;;3.93;;
7377;SDS011;3730;50.856;12.776;2022-09-14T00:09:41;4.33;;;4.03;;
7377;SDS011;3730;50.856;12.776;2022-09-14T00:12:08;4.17;;;3.77;;
7377;SDS011;3730;50.856;12.776;2022-09-14T00:14:34;5.90;;;4.60;;
7377;SDS011;3730;50.856;12.776;2022-09-14T00:17:00;6.07;;;3.90;;
7377;SDS011;3730;50.856;12.776;2022-09-14T00:19:26;4.60;;;4.20;;
7377;SDS011;3730;50.856;12.776;2022-09-14T00:21:53;4.37;;;3.97;;
7377;SDS011;3730;50.856;12.776;2022-09-14T00:24:20;5.13;;;4.30;;
7377;SDS011;3730;50.856;12.776;2022-09-14T00:26:46;4.60;;;4.20;;
7377;SDS011;3730;50.856;12.776;2022-09-14T00:29:12;4.97;;;4.47;;
7377;SDS011;3730;50.856;12.776;2022-09-14T00:31:38;7.33;;;4.27;;
7377;SDS011;3730;50.856;12.776;2022-09-14T00:34:05;4.77;;;4.37;;
7377;SDS011;3730;50.856;12.776;2022-09-14T00:36:32;4.87;;;4.47;;
7377;SDS011;3730;50.856;12.776;2022-09-14T00:38:58;4.63;;;4.23;;
7377;SDS011;3730;50.856;12.776;2022-09-14T00:41:25;5.47;;;4.60;;
7377;SDS011;3730;50.856;12.776;2022-09-14T00:46:18;5.27;;;4.70;;
7377;SDS011;3730;50.856;12.776;2022-09-14T00:48:44;5.07;;;4.67;;
7377;SDS011;3730;50.856;12.776;2022-09-14T00:51:10;5.97;;;5.00;;
7377;SDS011;3730;50.856;12.776;2022-09-14T00:53:36;4.57;;;4.00;;
7377;SDS011;3730;50.856;12.776;2022-09-14T00:56:02;6.97;;;4.10;;
7377;SDS011;3730;50.856;12.776;2022-09-14T00:58:28;6.33;;;4.70;;
7377;SDS011;3730;50.856;12.776;2022-09-14T01:00:54;6.80;;;4.47;;
7377;SDS011;3730;50.856;12.776;2022-09-14T01:03:22;4.80;;;4.40;;
7377;SDS011;3730;50.856;12.776;2022-09-14T01:13:23;5.30;;;4.80;;
7377;SDS011;3730;50.856;12.776;2022-09-14T01:18:28;6.87;;;4.83;;
7377;SDS011;3730;50.856;12.776;2022-09-14T01:21:00;4.77;;;4.37;;
7377;SDS011;3730;50.856;12.776;2022-09-14T01:31:20;5.63;;;4.60;;
7377;SDS011;3730;50.856;12.776;2022-09-14T01:34:00;4.77;;;4.37;;
7377;SDS011;3730;50.856;12.776;2022-09-14T01:36:29;5.13;;;4.63;;
7377;SDS011;3730;50.856;12.776;2022-09-14T01:38:56;5.77;;;4.67;;
7377;SDS011;3730;50.856;12.776;2022-09-14T01:41:23;5.43;;;4.93;;
7377;SDS011;3730;50.856;12.776;2022-09-14T01:43:58;5.60;;;5.10;;
7377;SDS011;3730;50.856;12.776;2022-09-14T01:47:00;6.07;;;5.47;;
7377;SDS011;3730;50.856;12.776;2022-09-14T01:51:49;5.93;;;5.43;;
7377;SDS011;3730;50.856;12.776;2022-09-14T01:54:27;5.30;;;4.87;;
7377;SDS011;3730;50.856;12.776;2022-09-14T01:56:59;6.37;;;5.77;;
7377;SDS011;3730;50.856;12.776;2022-09-14T01:59:29;6.03;;;5.40;;
7377;SDS011;3730;50.856;12.776;2022-09-14T02:02:01;5.83;;;5.33;;
7377;SDS011;3730;50.856;12.776;2022-09-14T02:04:40;5.77;;;5.20;;
7377;SDS011;3730;50.856;12.776;2022-09-14T02:07:07;6.00;;;5.50;;
7377;SDS011;3730;50.856;12.776;2022-09-14T02:09:33;5.43;;;4.93;;
7377;SDS011;3730;50.856;12.776;2022-09-14T02:12:00;5.20;;;4.70;;
7377;SDS011;3730;50.856;12.776;2022-09-14T02:14:26;5.63;;;5.13;;
7377;SDS011;3730;50.856;12.776;2022-09-14T02:16:52;5.33;;;4.83;;
7377;SDS011;3730;50.856;12.776;2022-09-14T02:19:18;6.17;;;5.57;;
7377;SDS011;3730;50.856;12.776;2022-09-14T02:21:44;6.80;;;6.20;;
7377;SDS011;3730;50.856;12.776;2022-09-14T02:24:11;7.30;;;5.63;;
7377;SDS011;3730;50.856;12.776;2022-09-14T02:26:37;6.00;;;5.40;;
7377;SDS011;3730;50.856;12.776;2022-09-14T02:29:04;6.50;;;5.90;;
7377;SDS011;3730;50.856;12.776;2022-09-14T02:34:05;8.40;;;6.33;;
7377;SDS011;3730;50.856;12.776;2022-09-14T02:41:50;6.43;;;5.80;;
7377;SDS011;3730;50.856;12.776;2022-09-14T02:44:22;7.60;;;5.40;;
7377;SDS011;3730;50.856;12.776;2022-09-14T02:52:14;7.00;;;6.30;;
7377;SDS011;3730;50.856;12.776;2022-09-14T02:57:23;6.10;;;5.50;;
7377;SDS011;3730;50.856;12.776;2022-09-14T02:59:49;7.53;;;6.17;;
7377;SDS011;3730;50.856;12.776;2022-09-14T03:02:15;6.40;;;5.80;;
7377;SDS011;3730;50.856;12.776;2022-09-14T03:04:40;8.27;;;5.70;;
7377;SDS011;3730;50.856;12.776;2022-09-14T03:07:06;7.40;;;6.70;;
7377;SDS011;3730;50.856;12.776;2022-09-14T03:09:32;6.73;;;6.07;;
7377;SDS011;3730;50.856;12.776;2022-09-14T03:11:58;8.13;;;6.00;;
7377;SDS011;3730;50.856;12.776;2022-09-14T03:14:24;7.90;;;7.10;;
7377;SDS011;3730;50.856;12.776;2022-09-14T03:16:50;6.87;;;6.17;;
7377;SDS011;3730;50.856;12.776;2022-09-14T03:19:16;8.77;;;6.73;;
7377;SDS011;3730;50.856;12.776;2022-09-14T03:21:42;6.83;;;6.07;;
7377;SDS011;3730;50.856;12.776;2022-09-14T03:24:08;7.93;;;7.10;;
7377;SDS011;3730;50.856;12.776;2022-09-14T03:26:34;6.73;;;6.13;;
7377;SDS011;3730;50.856;12.776;2022-09-14T03:29:02;7.90;;;7.10;;
7377;SDS011;3730;50.856;12.776;2022-09-14T03:31:29;6.90;;;6.30;;
7377;SDS011;3730;50.856;12.776;2022-09-14T03:33:56;7.50;;;6.70;;
7377;SDS011;3730;50.856;12.776;2022-09-14T03:36:23;7.80;;;7.00;;
7377;SDS011;3730;50.856;12.776;2022-09-14T03:38:50;8.30;;;7.40;;
7377;SDS011;3730;50.856;12.776;2022-09-14T03:41:17;7.70;;;6.97;;
7377;SDS011;3730;50.856;12.776;2022-09-14T03:43:43;9.00;;;6.57;;
7377;SDS011;3730;50.856;12.776;2022-09-14T03:46:14;10.10;;;6.83;;
7377;SDS011;3730;50.856;12.776;2022-09-14T03:48:40;7.80;;;6.37;;
7377;SDS011;3730;50.856;12.776;2022-09-14T03:51:07;6.37;;;5.77;;
7377;SDS011;3730;50.856;12.776;2022-09-14T03:53:33;9.13;;;7.90;;
7377;SDS011;3730;50.856;12.776;2022-09-14T03:55:59;7.83;;;7.13;;
7377;SDS011;3730;50.856;12.776;2022-09-14T03:58:25;8.47;;;6.47;;
7377;SDS011;3730;50.856;12.776;2022-09-14T04:00:52;6.77;;;6.07;;
7377;SDS011;3730;50.856;12.776;2022-09-14T04:03:18;6.83;;;6.13;;
7377;SDS011;3730;50.856;12.776;2022-09-14T04:05:52;6.70;;;6.10;;
7377;SDS011;3730;50.856;12.776;2022-09-14T04:08:19;6.20;;;5.60;;
7377;SDS011;3730;50.856;12.776;2022-09-14T04:10:45;6.73;;;6.03;;
7377;SDS011;3730;50.856;12.776;2022-09-14T04:13:11;6.27;;;5.63;;
7377;SDS011;3730;50.856;12.776;2022-09-14T04:15:37;7.03;;;6.33;;
7377;SDS011;3730;50.856;12.776;2022-09-14T04:18:03;7.23;;;6.10;;
7377;SDS011;3730;50.856;12.776;2022-09-14T04:20:29;6.83;;;5.63;;
7377;SDS011;3730;50.856;12.776;2022-09-14T04:22:55;7.37;;;6.67;;
7377;SDS011;3730;50.856;12.776;2022-09-14T04:25:21;8.33;;;6.37;;
7377;SDS011;3730;50.856;12.776;2022-09-14T04:27:48;7.00;;;6.20;;
7377;SDS011;3730;50.856;12.776;2022-09-14T04:30:14;6.43;;;5.90;;
7377;SDS011;3730;50.856;12.776;2022-09-14T04:32:40;6.97;;;6.27;;
7377;SDS011;3730;50.856;12.776;2022-09-14T04:35:06;7.50;;;6.73;;
7377;SDS011;3730;50.856;12.776;2022-09-14T04:37:33;6.83;;;6.23;;
7377;SDS011;3730;50.856;12.776;2022-09-14T04:39:59;7.23;;;6.60;;
7377;SDS011;3730;50.856;12.776;2022-09-14T04:42:25;7.87;;;6.87;;
7377;SDS011;3730;50.856;12.776;2022-09-14T04:44:51;7.03;;;6.13;;
7377;SDS011;3730;50.856;12.776;2022-09-14T04:47:17;7.47;;;6.67;;
7377;SDS011;3730;50.856;12.776;2022-09-14T04:49:43;6.40;;;5.90;;
7377;SDS011;3730;50.856;12.776;2022-09-14T04:52:09;7.57;;;6.50;;
7377;SDS011;3730;50.856;12.776;2022-09-14T04:54:35;8.70;;;6.40;;
7377;SDS011;3730;50.856;12.776;2022-09-14T04:57:01;6.70;;;6.10;;
7377;SDS011;3730;50.856;12.776;2022-09-14T04:59:26;6.90;;;6.20;;
7377;SDS011;3730;50.856;12.776;2022-09-14T05:01:52;10.57;;;6.93;;
7377;SDS011;3730;50.856;12.776;2022-09-14T05:04:18;6.53;;;5.80;;
7377;SDS011;3730;50.856;12.776;2022-09-14T05:06:44;6.97;;;6.30;;
7377;SDS011;3730;50.856;12.776;2022-09-14T05:09:12;7.63;;;6.93;;
7377;SDS011;3730;50.856;12.776;2022-09-14T05:11:39;8.17;;;7.37;;
7377;SDS011;3730;50.856;12.776;2022-09-14T05:14:05;7.90;;;7.10;;
7377;SDS011;3730;50.856;12.776;2022-09-14T05:16:33;8.27;;;6.83;;
7377;SDS011;3730;50.856;12.776;2022-09-14T05:19:00;10.60;;;6.97;;
7377;SDS011;3730;50.856;12.776;2022-09-14T05:21:27;8.07;;;7.27;;
7377;SDS011;3730;50.856;12.776;2022-09-14T05:23:57;7.50;;;6.80;;
7377;SDS011;3730;50.856;12.776;2022-09-14T05:26:24;9.63;;;7.70;;
7377;SDS011;3730;50.856;12.776;2022-09-14T05:28:51;8.27;;;7.47;;
7377;SDS011;3730;50.856;12.776;2022-09-14T05:31:17;8.03;;;7.00;;
7377;SDS011;3730;50.856;12.776;2022-09-14T05:33:43;8.30;;;7.13;;
7377;SDS011;3730;50.856;12.776;2022-09-14T05:36:09;8.50;;;7.70;;
7377;SDS011;3730;50.856;12.776;2022-09-14T05:38:36;7.50;;;6.80;;
7377;SDS011;3730;50.856;12.776;2022-09-14T05:41:03;7.70;;;7.00;;
7377;SDS011;3730;50.856;12.776;2022-09-14T05:43:29;7.67;;;6.97;;
7377;SDS011;3730;50.856;12.776;2022-09-14T05:45:55;12.33;;;11.07;;
7377;SDS011;3730;50.856;12.776;2022-09-14T05:48:26;9.60;;;8.47;;
7377;SDS011;3730;50.856;12.776;2022-09-14T05:50:58;7.57;;;6.87;;
7377;SDS011;3730;50.856;12.776;2022-09-14T05:53:25;7.13;;;6.40;;
7377;SDS011;3730;50.856;12.776;2022-09-14T05:56:00;8.10;;;7.13;;
7377;SDS011;3730;50.856;12.776;2022-09-14T05:58:27;6.30;;;5.70;;
7377;SDS011;3730;50.856;12.776;2022-09-14T06:00:53;7.13;;;6.43;;
7377;SDS011;3730;50.856;12.776;2022-09-14T06:03:19;7.07;;;6.43;;
7377;SDS011;3730;50.856;12.776;2022-09-14T06:05:45;7.47;;;6.77;;
7377;SDS011;3730;50.856;12.776;2022-09-14T06:08:11;8.13;;;6.90;;
7377;SDS011;3730;50.856;12.776;2022-09-14T06:10:37;7.10;;;6.30;;
7377;SDS011;3730;50.856;12.776;2022-09-14T06:13:03;8.23;;;6.23;;
7377;SDS011;3730;50.856;12.776;2022-09-14T06:15:29;7.93;;;6.67;;
7377;SDS011;3730;50.856;12.776;2022-09-14T06:17:55;6.57;;;5.97;;
7377;SDS011;3730;50.856;12.776;2022-09-14T06:20:21;6.37;;;5.60;;
7377;SDS011;3730;50.856;12.776;2022-09-14T06:22:47;7.67;;;5.87;;
7377;SDS011;3730;50.856;12.776;2022-09-14T06:25:13;6.43;;;5.73;;
7377;SDS011;3730;50.856;12.776;2022-09-14T06:27:39;6.40;;;5.80;;
7377;SDS011;3730;50.856;12.776;2022-09-14T06:30:05;6.53;;;5.93;;
7377;SDS011;3730;50.856;12.776;2022-09-14T06:32:31;7.30;;;6.60;;
7377;SDS011;3730;50.856;12.776;2022-09-14T06:34:57;8.13;;;6.90;;
7377;SDS011;3730;50.856;12.776;2022-09-14T06:37:23;7.10;;;6.40;;
7377;SDS011;3730;50.856;12.776;2022-09-14T06:39:49;7.50;;;6.80;;
7377;SDS011;3730;50.856;12.776;2022-09-14T06:42:15;7.60;;;6.90;;
7377;SDS011;3730;50.856;12.776;2022-09-14T06:44:41;8.77;;;6.40;;
7377;SDS011;3730;50.856;12.776;2022-09-14T06:47:07;8.87;;;6.80;;
7377;SDS011;3730;50.856;12.776;2022-09-14T06:49:33;7.13;;;6.07;;
7377;SDS011;3730;50.856;12.776;2022-09-14T06:51:59;6.40;;;5.90;;
7377;SDS011;3730;50.856;12.776;2022-09-14T06:54:25;7.83;;;6.47;;
7377;SDS011;3730;50.856;12.776;2022-09-14T06:56:51;8.47;;;7.07;;
7377;SDS011;3730;50.856;12.776;2022-09-14T06:59:17;6.53;;;5.93;;
7377;SDS011;3730;50.856;12.776;2022-09-14T07:01:44;8.57;;;6.60;;
7377;SDS011;3730;50.856;12.776;2022-09-14T07:04:13;11.43;;;9.77;;
7377;SDS011;3730;50.856;12.776;2022-09-14T07:06:44;9.07;;;8.17;;
7377;SDS011;3730;50.856;12.776;2022-09-14T07:09:10;11.17;;;8.00;;
7377;SDS011;3730;50.856;12.776;2022-09-14T07:11:36;8.03;;;6.90;;
7377;SDS011;3730;50.856;12.776;2022-09-14T07:14:02;7.23;;;6.53;;
7377;SDS011;3730;50.856;12.776;2022-09-14T07:16:30;7.60;;;6.90;;
7377;SDS011;3730;50.856;12.776;2022-09-14T07:18:56;7.13;;;6.53;;
7377;SDS011;3730;50.856;12.776;2022-09-14T07:21:23;7.43;;;6.73;;
7377;SDS011;3730;50.856;12.776;2022-09-14T07:23:49;8.10;;;7.30;;
7377;SDS011;3730;50.856;12.776;2022-09-14T07:26:22;8.63;;;7.70;;
7377;SDS011;3730;50.856;12.776;2022-09-14T07:28:50;9.30;;;7.47;;
7377;SDS011;3730;50.856;12.776;2022-09-14T07:31:26;10.63;;;8.00;;
7377;SDS011;3730;50.856;12.776;2022-09-14T07:33:53;10.20;;;8.43;;
7377;SDS011;3730;50.856;12.776;2022-09-14T07:36:19;13.37;;;9.93;;
7377;SDS011;3730;50.856;12.776;2022-09-14T07:38:46;11.70;;;9.23;;
7377;SDS011;3730;50.856;12.776;2022-09-14T07:41:12;12.57;;;11.27;;
7377;SDS011;3730;50.856;12.776;2022-09-14T07:43:38;12.87;;;10.60;;
7377;SDS011;3730;50.856;12.776;2022-09-14T07:46:04;10.83;;;9.73;;
7377;SDS011;3730;50.856;12.776;2022-09-14T07:48:31;10.13;;;9.13;;
7377;SDS011;3730;50.856;12.776;2022-09-14T07:50:58;14.03;;;11.60;;
7377;SDS011;3730;50.856;12.776;2022-09-14T07:53:24;12.20;;;10.97;;
7377;SDS011;3730;50.856;12.776;2022-09-14T07:55:50;13.57;;;11.90;;
7377;SDS011;3730;50.856;12.776;2022-09-14T07:58:16;12.50;;;11.20;;
7377;SDS011;3730;50.856;12.776;2022-09-14T08:00:42;13.50;;;12.20;;
7377;SDS011;3730;50.856;12.776;2022-09-14T08:03:09;11.40;;;10.03;;
7377;SDS011;3730;50.856;12.776;2022-09-14T08:05:35;12.27;;;11.03;;
7377;SDS011;3730;50.856;12.776;2022-09-14T08:08:01;11.80;;;10.63;;
7377;SDS011;3730;50.856;12.776;2022-09-14T08:10:27;10.50;;;9.50;;
7377;SDS011;3730;50.856;12.776;2022-09-14T08:12:54;10.80;;;9.67;;
7377;SDS011;3730;50.856;12.776;2022-09-14T08:15:20;9.40;;;8.50;;
7377;SDS011;3730;50.856;12.776;2022-09-14T08:17:47;8.53;;;7.73;;
7377;SDS011;3730;50.856;12.776;2022-09-14T08:20:13;10.00;;;9.00;;
7377;SDS011;3730;50.856;12.776;2022-09-14T08:22:40;9.27;;;8.37;;
7377;SDS011;3730;50.856;12.776;2022-09-14T08:25:07;11.10;;;10.00;;
7377;SDS011;3730;50.856;12.776;2022-09-14T08:27:33;10.93;;;9.13;;
7377;SDS011;3730;50.856;12.776;2022-09-14T08:29:59;9.90;;;8.90;;
7377;SDS011;3730;50.856;12.776;2022-09-14T08:32:25;8.90;;;8.00;;
7377;SDS011;3730;50.856;12.776;2022-09-14T08:34:51;8.53;;;7.73;;
7377;SDS011;3730;50.856;12.776;2022-09-14T08:37:17;8.50;;;7.67;;
7377;SDS011;3730;50.856;12.776;2022-09-14T08:39:43;7.30;;;6.70;;
7377;SDS011;3730;50.856;12.776;2022-09-14T08:42:12;6.93;;;6.30;;
7377;SDS011;3730;50.856;12.776;2022-09-14T08:44:42;7.03;;;6.43;;
7377;SDS011;3730;50.856;12.776;2022-09-14T08:49:53;7.07;;;6.37;;
7377;SDS011;3730;50.856;12.776;2022-09-14T08:54:52;7.43;;;6.10;;
7377;SDS011;3730;50.856;12.776;2022-09-14T09:00:05;8.53;;;7.37;;
7377;SDS011;3730;50.856;12.776;2022-09-14T09:08:01;13.07;;;10.33;;
7377;SDS011;3730;50.856;12.776;2022-09-14T09:10:29;14.20;;;12.20;;
7377;SDS011;3730;50.856;12.776;2022-09-14T09:12:58;15.37;;;13.03;;
7377;SDS011;3730;50.856;12.776;2022-09-14T09:15:28;15.37;;;13.43;;
7377;SDS011;3730;50.856;12.776;2022-09-14T09:18:00;16.17;;;13.60;;
7377;SDS011;3730;50.856;12.776;2022-09-14T09:20:28;15.73;;;12.43;;
7377;SDS011;3730;50.856;12.776;2022-09-14T09:23:14;11.10;;;9.80;;
7377;SDS011;3730;50.856;12.776;2022-09-14T09:25:51;10.50;;;8.70;;
7377;SDS011;3730;50.856;12.776;2022-09-14T09:28:18;12.97;;;10.27;;
7377;SDS011;3730;50.856;12.776;2022-09-14T09:30:44;10.97;;;9.00;;
7377;SDS011;3730;50.856;12.776;2022-09-14T09:33:14;8.50;;;7.37;;
7377;SDS011;3730;50.856;12.776;2022-09-14T09:35:41;10.23;;;8.80;;
7377;SDS011;3730;50.856;12.776;2022-09-14T09:38:11;7.67;;;6.93;;
7377;SDS011;3730;50.856;12.776;2022-09-14T09:40:39;8.37;;;7.00;;
7377;SDS011;3730;50.856;12.776;2022-09-14T09:43:15;7.83;;;6.73;;
7377;SDS011;3730;50.856;12.776;2022-09-14T09:48:15;8.53;;;7.47;;
7377;SDS011;3730;50.856;12.776;2022-09-14T09:50:46;8.23;;;7.27;;
7377;SDS011;3730;50.856;12.776;2022-09-14T09:53:15;13.07;;;10.27;;
7377;SDS011;3730;50.856;12.776;2022-09-14T09:55:45;15.00;;;11.67;;
7377;SDS011;3730;50.856;12.776;2022-09-14T10:01:21;12.07;;;10.87;;
7377;SDS011;3730;50.856;12.776;2022-09-14T10:06:26;10.80;;;9.70;;
7377;SDS011;3730;50.856;12.776;2022-09-14T10:08:52;9.83;;;8.93;;
7377;SDS011;3730;50.856;12.776;2022-09-14T10:11:26;9.83;;;8.83;;
7377;SDS011;3730;50.856;12.776;2022-09-14T10:13:53;8.37;;;7.57;;
7377;SDS011;3730;50.856;12.776;2022-09-14T10:16:20;6.57;;;6.00;;
7377;SDS011;3730;50.856;12.776;2022-09-14T10:18:46;6.80;;;6.20;;
7377;SDS011;3730;50.856;12.776;2022-09-14T10:21:14;6.07;;;5.47;;
7377;SDS011;3730;50.856;12.776;2022-09-14T10:23:40;5.43;;;4.93;;
7377;SDS011;3730;50.856;12.776;2022-09-14T10:28:35;5.23;;;4.83;;
7377;SDS011;3730;50.856;12.776;2022-09-14T10:33:37;6.17;;;4.80;;
7377;SDS011;3730;50.856;12.776;2022-09-14T10:46:29;3.60;;;3.30;;
7377;SDS011;3730;50.856;12.776;2022-09-14T10:51:33;5.57;;;5.17;;
7377;SDS011;3730;50.856;12.776;2022-09-14T10:56:50;7.90;;;7.20;;
7377;SDS011;3730;50.856;12.776;2022-09-14T10:59:25;7.57;;;6.87;;
7377;SDS011;3730;50.856;12.776;2022-09-14T11:05:01;9.13;;;8.33;;
7377;SDS011;3730;50.856;12.776;2022-09-14T11:10:17;8.10;;;7.20;;
7377;SDS011;3730;50.856;12.776;2022-09-14T11:12:48;8.67;;;7.87;;
7377;SDS011;3730;50.856;12.776;2022-09-14T11:20:21;7.33;;;6.73;;
7377;SDS011;3730;50.856;12.776;2022-09-14T11:25:21;7.63;;;6.93;;
7377;SDS011;3730;50.856;12.776;2022-09-14T11:30:21;5.83;;;5.33;;
7377;SDS011;3730;50.856;12.776;2022-09-14T11:32:55;5.57;;;5.07;;
7377;SDS011;3730;50.856;12.776;2022-09-14T11:35:41;4.50;;;4.20;;
7377;SDS011;3730;50.856;12.776;2022-09-14T11:39:11;3.97;;;3.60;;
7377;SDS011;3730;50.856;12.776;2022-09-14T11:43:45;4.00;;;3.70;;
7377;SDS011;3730;50.856;12.776;2022-09-14T11:46:14;3.40;;;3.10;;
7377;SDS011;3730;50.856;12.776;2022-09-14T11:53:52;3.57;;;3.30;;
7377;SDS011;3730;50.856;12.776;2022-09-14T11:56:22;3.00;;;2.70;;
7377;SDS011;3730;50.856;12.776;2022-09-14T11:58:51;2.57;;;2.37;;
7377;SDS011;3730;50.856;12.776;2022-09-14T12:09:22;4.30;;;3.33;;
7377;SDS011;3730;50.856;12.776;2022-09-14T12:11:46;3.30;;;3.10;;
7377;SDS011;3730;50.856;12.776;2022-09-14T12:19:25;3.30;;;3.10;;
7377;SDS011;3730;50.856;12.776;2022-09-14T12:21:51;3.33;;;3.13;;
7377;SDS011;3730;50.856;12.776;2022-09-14T12:24:18;2.87;;;2.67;;
7377;SDS011;3730;50.856;12.776;2022-09-14T12:26:45;3.10;;;2.60;;
7377;SDS011;3730;50.856;12.776;2022-09-14T12:29:25;2.80;;;2.60;;
7377;SDS011;3730;50.856;12.776;2022-09-14T12:34:20;2.63;;;2.33;;
7377;SDS011;3730;50.856;12.776;2022-09-14T12:44:27;2.47;;;2.27;;
7377;SDS011;3730;50.856;12.776;2022-09-14T12:46:50;2.47;;;2.27;;
7377;SDS011;3730;50.856;12.776;2022-09-14T12:49:49;2.30;;;2.20;;
7377;SDS011;3730;50.856;12.776;2022-09-14T12:52:12;2.60;;;2.40;;
7377;SDS011;3730;50.856;12.776;2022-09-14T12:57:17;3.00;;;2.80;;
7377;SDS011;3730;50.856;12.776;2022-09-14T12:59:55;2.50;;;2.30;;
7377;SDS011;3730;50.856;12.776;2022-09-14T13:05:24;2.53;;;2.33;;
7377;SDS011;3730;50.856;12.776;2022-09-14T13:07:52;2.43;;;2.23;;
7377;SDS011;3730;50.856;12.776;2022-09-14T13:10:24;2.30;;;2.20;;
7377;SDS011;3730;50.856;12.776;2022-09-14T13:12:50;3.00;;;2.50;;
7377;SDS011;3730;50.856;12.776;2022-09-14T13:15:23;2.73;;;2.53;;
7377;SDS011;3730;50.856;12.776;2022-09-14T13:18:21;2.70;;;2.50;;
7377;SDS011;3730;50.856;12.776;2022-09-14T13:20:52;2.60;;;2.40;;
7377;SDS011;3730;50.856;12.776;2022-09-14T13:23:20;2.20;;;2.10;;
7377;SDS011;3730;50.856;12.776;2022-09-14T13:25:46;2.10;;;1.90;;
7377;SDS011;3730;50.856;12.776;2022-09-14T13:28:12;2.17;;;1.97;;
7377;SDS011;3730;50.856;12.776;2022-09-14T13:30:39;1.70;;;1.60;;
7377;SDS011;3730;50.856;12.776;2022-09-14T13:33:05;2.17;;;2.07;;
7377;SDS011;3730;50.856;12.776;2022-09-14T13:35:34;2.00;;;1.83;;
7377;SDS011;3730;50.856;12.776;2022-09-14T13:38:05;2.73;;;2.53;;
7377;SDS011;3730;50.856;12.776;2022-09-14T13:40:32;2.80;;;2.60;;
7377;SDS011;3730;50.856;12.776;2022-09-14T13:42:58;2.97;;;2.77;;
7377;SDS011;3730;50.856;12.776;2022-09-14T13:45:24;4.50;;;3.13;;
7377;SDS011;3730;50.856;12.776;2022-09-14T13:47:51;3.73;;;3.43;;
7377;SDS011;3730;50.856;12.776;2022-09-14T13:50:18;3.20;;;3.00;;
7377;SDS011;3730;50.856;12.776;2022-09-14T13:52:47;3.27;;;3.07;;
7377;SDS011;3730;50.856;12.776;2022-09-14T14:00:56;6.03;;;5.53;;
7377;SDS011;3730;50.856;12.776;2022-09-14T14:03:25;5.47;;;4.97;;
7377;SDS011;3730;50.856;12.776;2022-09-14T14:06:31;5.63;;;5.03;;
7377;SDS011;3730;50.856;12.776;2022-09-14T14:14:09;9.33;;;8.37;;
7377;SDS011;3730;50.856;12.776;2022-09-14T14:19:37;9.57;;;8.50;;
7377;SDS011;3730;50.856;12.776;2022-09-14T14:24:42;7.33;;;6.63;;
7377;SDS011;3730;50.856;12.776;2022-09-14T14:30:03;6.97;;;6.47;;
7377;SDS011;3730;50.856;12.776;2022-09-14T14:32:52;6.43;;;5.83;;
7377;SDS011;3730;50.856;12.776;2022-09-14T14:35:23;7.23;;;6.53;;
7377;SDS011;3730;50.856;12.776;2022-09-14T14:37:50;6.90;;;6.20;;
7377;SDS011;3730;50.856;12.776;2022-09-14T14:40:17;7.53;;;6.83;;
7377;SDS011;3730;50.856;12.776;2022-09-14T14:42:43;6.20;;;5.60;;
7377;SDS011;3730;50.856;12.776;2022-09-14T14:45:13;6.43;;;5.93;;
7377;SDS011;3730;50.856;12.776;2022-09-14T14:47:42;5.90;;;5.40;;
7377;SDS011;3730;50.856;12.776;2022-09-14T14:50:17;7.40;;;6.80;;
7377;SDS011;3730;50.856;12.776;2022-09-14T14:52:45;7.93;;;7.23;;
7377;SDS011;3730;50.856;12.776;2022-09-14T14:55:11;8.30;;;7.60;;
7377;SDS011;3730;50.856;12.776;2022-09-14T14:57:37;6.73;;;6.23;;
7377;SDS011;3730;50.856;12.776;2022-09-14T15:00:03;7.23;;;6.63;;
7377;SDS011;3730;50.856;12.776;2022-09-14T15:02:32;6.17;;;5.67;;
7377;SDS011;3730;50.856;12.776;2022-09-14T15:04:57;8.07;;;7.40;;
7377;SDS011;3730;50.856;12.776;2022-09-14T15:07:23;7.57;;;6.87;;
7377;SDS011;3730;50.856;12.776;2022-09-14T15:09:48;6.50;;;5.90;;
7377;SDS011;3730;50.856;12.776;2022-09-14T15:12:14;5.50;;;4.93;;
7377;SDS011;3730;50.856;12.776;2022-09-14T15:14:40;5.23;;;4.80;;
7377;SDS011;3730;50.856;12.776;2022-09-14T15:17:05;5.80;;;5.40;;
7377;SDS011;3730;50.856;12.776;2022-09-14T15:19:31;5.43;;;5.03;;
7377;SDS011;3730;50.856;12.776;2022-09-14T15:21:56;7.00;;;6.40;;
7377;SDS011;3730;50.856;12.776;2022-09-14T15:24:22;5.27;;;4.87;;
7377;SDS011;3730;50.856;12.776;2022-09-14T15:26:47;4.50;;;4.13;;
7377;SDS011;3730;50.856;12.776;2022-09-14T15:29:13;4.40;;;4.10;;
7377;SDS011;3730;50.856;12.776;2022-09-14T15:31:41;4.03;;;3.73;;
7377;SDS011;3730;50.856;12.776;2022-09-14T15:34:07;5.07;;;4.63;;
7377;SDS011;3730;50.856;12.776;2022-09-14T15:36:37;6.30;;;5.70;;
7377;SDS011;3730;50.856;12.776;2022-09-14T15:39:05;5.70;;;5.20;;
7377;SDS011;3730;50.856;12.776;2022-09-14T15:41:32;5.50;;;5.00;;
7377;SDS011;3730;50.856;12.776;2022-09-14T15:43:57;5.83;;;5.33;;
7377;SDS011;3730;50.856;12.776;2022-09-14T15:46:23;4.00;;;3.70;;
7377;SDS011;3730;50.856;12.776;2022-09-14T15:48:49;3.70;;;3.40;;
7377;SDS011;3730;50.856;12.776;2022-09-14T15:51:14;3.23;;;3.03;;
7377;SDS011;3730;50.856;12.776;2022-09-14T15:53:41;4.17;;;3.87;;
7377;SDS011;3730;50.856;12.776;2022-09-14T15:56:10;3.70;;;3.40;;
7377;SDS011;3730;50.856;12.776;2022-09-14T15:58:36;3.77;;;3.40;;
7377;SDS011;3730;50.856;12.776;2022-09-14T16:01:12;2.80;;;2.60;;
7377;SDS011;3730;50.856;12.776;2022-09-14T16:03:39;2.93;;;2.73;;
7377;SDS011;3730;50.856;12.776;2022-09-14T16:06:07;2.73;;;2.53;;
7377;SDS011;3730;50.856;12.776;2022-09-14T16:08:34;2.23;;;2.10;;
7377;SDS011;3730;50.856;12.776;2022-09-14T16:11:01;2.67;;;2.47;;
7377;SDS011;3730;50.856;12.776;2022-09-14T16:13:28;2.70;;;2.50;;
7377;SDS011;3730;50.856;12.776;2022-09-14T16:16:07;2.80;;;2.60;;
7377;SDS011;3730;50.856;12.776;2022-09-14T16:18:34;2.30;;;2.20;;
7377;SDS011;3730;50.856;12.776;2022-09-14T16:21:14;2.60;;;2.40;;
7377;SDS011;3730;50.856;12.776;2022-09-14T16:23:43;2.33;;;2.23;;
7377;SDS011;3730;50.856;12.776;2022-09-14T16:26:11;2.70;;;2.50;;
7377;SDS011;3730;50.856;12.776;2022-09-14T16:28:43;2.40;;;2.27;;
7377;SDS011;3730;50.856;12.776;2022-09-14T16:31:11;2.57;;;2.37;;
7377;SDS011;3730;50.856;12.776;2022-09-14T16:33:41;2.47;;;2.30;;
7377;SDS011;3730;50.856;12.776;2022-09-14T16:36:13;2.47;;;2.37;;
7377;SDS011;3730;50.856;12.776;2022-09-14T16:38:41;2.20;;;2.10;;
7377;SDS011;3730;50.856;12.776;2022-09-14T16:41:07;2.40;;;2.30;;
7377;SDS011;3730;50.856;12.776;2022-09-14T16:43:34;3.00;;;2.70;;
7377;SDS011;3730;50.856;12.776;2022-09-14T16:46:04;3.17;;;2.97;;
7377;SDS011;3730;50.856;12.776;2022-09-14T16:48:32;5.50;;;5.00;;
7377;SDS011;3730;50.856;12.776;2022-09-14T16:50:59;5.93;;;4.27;;
7377;SDS011;3730;50.856;12.776;2022-09-14T16:53:28;3.20;;;3.00;;
7377;SDS011;3730;50.856;12.776;2022-09-14T16:56:05;2.30;;;2.10;;
7377;SDS011;3730;50.856;12.776;2022-09-14T16:58:39;2.00;;;1.87;;
7377;SDS011;3730;50.856;12.776;2022-09-14T17:01:06;2.00;;;1.90;;
7377;SDS011;3730;50.856;12.776;2022-09-14T17:03:35;2.00;;;1.90;;
7377;SDS011;3730;50.856;12.776;2022-09-14T17:06:06;1.80;;;1.70;;
7377;SDS011;3730;50.856;12.776;2022-09-14T17:08:36;2.50;;;2.30;;
7377;SDS011;3730;50.856;12.776;2022-09-14T17:11:02;2.30;;;2.00;;
7377;SDS011;3730;50.856;12.776;2022-09-14T17:13:29;2.40;;;2.20;;
7377;SDS011;3730;50.856;12.776;2022-09-14T17:16:05;2.60;;;2.40;;
7377;SDS011;3730;50.856;12.776;2022-09-14T17:18:36;2.80;;;2.60;;
7377;SDS011;3730;50.856;12.776;2022-09-14T17:21:04;3.43;;;2.67;;
7377;SDS011;3730;50.856;12.776;2022-09-14T17:23:41;2.77;;;2.53;;
7377;SDS011;3730;50.856;12.776;2022-09-14T17:26:07;3.17;;;2.90;;
7377;SDS011;3730;50.856;12.776;2022-09-14T17:28:35;3.00;;;2.80;;
7377;SDS011;3730;50.856;12.776;2022-09-14T17:31:02;3.70;;;2.57;;
7377;SDS011;3730;50.856;12.776;2022-09-14T17:33:31;3.27;;;2.30;;
7377;SDS011;3730;50.856;12.776;2022-09-14T17:35:59;2.87;;;2.40;;
7377;SDS011;3730;50.856;12.776;2022-09-14T17:38:26;2.20;;;2.10;;